Time;durP1;ratioP1;P1;durP2;ratioP2;P2;SDS_P1;SDS_P2;PMS_P1;PMS_P2;Temp;Humidity;BMP_temperature;BMP_pressure;BME280_temperature;BME280_humidity;BME280_pressure;Samples;Min_cycle;Max_cycle;Signal;HPM_P1;HPM_P2
2022/08/10 00:02:16;;;;;;;6.13;3.10;;;15.10;99.90;;;;;;5052547;28;20120;-69
2022/08/10 00:04:42;;;;;;;5.82;2.97;;;15.30;99.90;;;;;;5052385;28;20037;-70
2022/08/10 00:07:08;;;;;;;4.38;2.50;;;15.10;99.90;;;;;;5052563;28;20102;-69
2022/08/10 00:09:34;;;;;;;5.30;2.92;;;15.10;99.90;;;;;;5034716;28;20079;-69
2022/08/10 00:11:59;;;;;;;5.72;3.20;;;15.20;99.90;;;;;;5052716;28;20040;-69
2022/08/10 00:14:25;;;;;;;4.47;2.80;;;15.10;99.90;;;;;;5052725;28;20041;-70
2022/08/10 00:16:51;;;;;;;4.25;3.15;;;15.10;99.90;;;;;;5052383;28;20107;-70
2022/08/10 00:19:16;;;;;;;4.47;3.00;;;15.10;99.90;;;;;;5034663;28;20084;-69
2022/08/10 00:21:42;;;;;;;5.60;3.17;;;15.10;99.90;;;;;;5054753;28;20053;-70
2022/08/10 00:24:08;;;;;;;3.80;2.60;;;15.10;99.90;;;;;;5056492;28;20041;-70
2022/08/10 00:26:33;;;;;;;3.58;2.72;;;15.00;99.90;;;;;;5056523;28;20037;-70
2022/08/10 00:28:59;;;;;;;5.20;2.88;;;15.00;99.90;;;;;;5056242;28;20563;-70
2022/08/10 00:31:25;;;;;;;3.67;2.45;;;15.00;99.90;;;;;;5056171;28;20040;-70
2022/08/10 00:33:50;;;;;;;5.30;3.42;;;15.30;99.90;;;;;;5055985;28;20119;-70
2022/08/10 00:36:16;;;;;;;4.47;2.88;;;14.90;99.90;;;;;;5056043;28;20040;-70
2022/08/10 00:38:41;;;;;;;6.43;3.22;;;14.90;99.90;;;;;;5056118;28;20044;-70
2022/08/10 00:41:07;;;;;;;4.25;2.67;;;14.90;99.90;;;;;;5056305;28;20045;-70
2022/08/10 00:43:33;;;;;;;4.95;3.00;;;14.90;99.90;;;;;;5037918;28;20045;-70
2022/08/10 00:45:59;;;;;;;5.28;3.08;;;14.90;99.90;;;;;;5038033;28;20486;-70
2022/08/10 00:48:24;;;;;;;4.53;3.03;;;14.90;99.90;;;;;;5056096;28;20040;-70
2022/08/10 00:50:50;;;;;;;4.32;3.05;;;14.90;99.90;;;;;;5056014;28;20040;-70
2022/08/10 00:53:16;;;;;;;4.60;2.95;;;14.90;99.90;;;;;;5055985;28;20476;-70
2022/08/10 00:55:42;;;;;;;4.97;3.33;;;14.90;99.90;;;;;;5055949;28;20391;-69
2022/08/10 00:58:07;;;;;;;4.18;2.85;;;14.90;99.90;;;;;;5055924;28;20068;-69
2022/08/10 01:00:33;;;;;;;5.30;2.97;;;14.80;99.90;;;;;;5037651;28;20469;-69
2022/08/10 01:02:59;;;;;;;6.40;3.25;;;14.80;99.90;;;;;;5037652;28;20083;-70
2022/08/10 01:05:25;;;;;;;4.63;3.08;;;14.80;99.90;;;;;;5055789;28;20476;-70
2022/08/10 01:07:59;;;;;;;4.25;2.55;;;14.70;99.90;;;;;;5055444;28;20033;-70
2022/08/10 01:10:28;;;;;;;4.85;3.03;;;14.60;99.90;;;;;;5055663;28;20037;-70
2022/08/10 01:13:15;;;;;;;4.20;2.78;;;14.60;99.90;;;;;;5055574;28;20037;-70
2022/08/10 01:15:46;;;;;;;6.07;3.55;;;14.60;99.90;;;;;;5055599;28;20119;-70
2022/08/10 01:18:30;;;;;;;4.85;2.55;;;14.60;99.90;;;;;;5055545;28;20476;-70
2022/08/10 01:21:16;;;;;;;4.03;2.88;;;14.60;99.90;;;;;;5055186;28;20125;-69
2022/08/10 01:24:01;;;;;;;4.53;2.70;;;14.60;99.90;;;;;;5055320;28;20116;-69
2022/08/10 01:26:50;;;;;;;3.90;2.47;;;14.50;99.90;;;;;;5055423;28;20451;-70
2022/08/10 01:29:34;;;;;;;6.63;3.35;;;14.50;99.90;;;;;;5055076;28;20036;-70
2022/08/10 01:32:05;;;;;;;4.53;2.83;;;14.50;99.90;;;;;;5054207;28;20037;-70
2022/08/10 01:34:53;;;;;;;6.45;3.38;;;14.50;99.90;;;;;;5055128;28;20052;-69
2022/08/10 01:37:22;;;;;;;5.13;3.13;;;14.50;99.90;;;;;;5054922;28;20037;-70
2022/08/10 01:39:54;;;;;;;4.63;2.97;;;14.50;99.90;;;;;;5055092;28;20191;-70
2022/08/10 01:42:22;;;;;;;4.95;3.08;;;14.60;99.90;;;;;;5055091;28;20048;-70
2022/08/10 01:45:01;;;;;;;6.93;2.95;;;14.60;99.90;;;;;;5054737;28;20115;-70
2022/08/10 01:50:44;;;;;;;4.03;2.33;;;14.60;99.90;;;;;;5054939;28;20055;-69
2022/08/10 01:53:15;;;;;;;4.85;2.33;;;14.60;99.90;;;;;;5054874;28;20037;-69
2022/08/10 01:55:42;;;;;;;4.68;2.97;;;14.60;99.90;;;;;;5054811;28;20044;-69
2022/08/10 01:58:09;;;;;;;3.28;2.17;;;14.50;99.90;;;;;;5054781;28;20040;-69
2022/08/10 02:00:38;;;;;;;4.72;2.50;;;14.50;99.90;;;;;;5054518;28;20048;-70
2022/08/10 02:03:06;;;;;;;4.68;2.45;;;14.40;99.90;;;;;;5054586;28;20037;-71
2022/08/10 02:05:33;;;;;;;5.85;3.03;;;14.40;99.90;;;;;;5054672;28;20533;-69
2022/08/10 02:08:01;;;;;;;4.60;2.72;;;14.40;99.90;;;;;;5036482;28;20081;-70
2022/08/10 02:10:29;;;;;;;5.35;3.00;;;14.40;99.90;;;;;;5054621;28;20087;-70
2022/08/10 02:12:56;;;;;;;5.45;3.65;;;14.40;99.90;;;;;;5054413;28;20083;-70
2022/08/10 02:15:26;;;;;;;4.95;2.80;;;14.40;99.90;;;;;;5054490;28;20041;-69
2022/08/10 02:17:57;;;;;;;4.82;3.13;;;14.40;99.90;;;;;;5054410;28;20103;-69
2022/08/10 02:20:26;;;;;;;4.95;3.40;;;14.30;99.90;;;;;;5054131;28;20057;-70
2022/08/10 02:23:00;;;;;;;5.63;2.83;;;14.40;99.90;;;;;;5054245;28;20124;-70
2022/08/10 02:25:27;;;;;;;4.07;3.10;;;14.40;99.90;;;;;;5054301;28;20037;-69
2022/08/10 02:27:54;;;;;;;5.22;3.28;;;14.40;99.90;;;;;;5054235;28;20041;-69
2022/08/10 02:30:21;;;;;;;5.88;3.95;;;14.40;99.90;;;;;;5054208;28;20041;-70
2022/08/10 02:32:48;;;;;;;6.25;3.83;;;14.40;99.90;;;;;;5036015;28;20114;-69
2022/08/10 02:35:16;;;;;;;6.53;3.60;;;14.70;99.90;;;;;;5054060;28;20052;-70
2022/08/10 02:37:45;;;;;;;4.82;3.38;;;14.40;99.90;;;;;;5054112;28;20048;-69
2022/08/10 02:40:11;;;;;;;5.63;3.63;;;14.50;99.90;;;;;;5053642;28;20044;-70
2022/08/10 02:42:37;;;;;;;4.28;3.20;;;14.40;99.90;;;;;;5054018;28;20049;-70
2022/08/10 02:45:10;;;;;;;5.55;3.03;;;14.40;99.90;;;;;;5053388;28;20396;-71
2022/08/10 02:47:43;;;;;;;5.95;4.03;;;14.40;99.90;;;;;;5035771;28;20044;-70
2022/08/10 02:50:27;;;;;;;5.70;3.45;;;14.40;99.90;;;;;;5053811;28;20068;-69
2022/08/10 02:53:24;;;;;;;5.57;3.60;;;14.40;99.90;;;;;;5053736;28;20049;-69
2022/08/10 02:55:59;;;;;;;6.00;3.28;;;14.40;99.90;;;;;;5053710;28;20056;-69
2022/08/10 02:58:33;;;;;;;7.10;3.78;;;14.40;99.90;;;;;;5053614;28;20075;-69
2022/08/10 03:01:05;;;;;;;4.47;3.58;;;14.40;99.90;;;;;;5053418;28;20083;-69
2022/08/10 03:03:41;;;;;;;5.50;3.08;;;14.40;99.90;;;;;;5053057;28;20041;-69
2022/08/10 03:06:11;;;;;;;6.00;3.97;;;14.40;99.90;;;;;;5053559;28;20045;-69
2022/08/10 03:08:41;;;;;;;5.18;3.13;;;14.40;99.90;;;;;;5053482;28;20392;-69
2022/08/10 03:11:14;;;;;;;5.70;3.50;;;14.40;99.90;;;;;;5053516;28;20497;-69
2022/08/10 03:13:41;;;;;;;5.35;3.35;;;14.40;99.90;;;;;;5035367;28;20407;-69
2022/08/10 03:16:08;;;;;;;6.88;3.58;;;14.50;99.90;;;;;;5053315;28;20365;-69
2022/08/10 03:18:36;;;;;;;6.95;3.92;;;14.40;99.90;;;;;;5053342;28;20075;-69
2022/08/10 03:21:03;;;;;;;5.00;3.35;;;14.40;99.90;;;;;;5015187;28;20061;-69
2022/08/10 03:23:30;;;;;;;9.15;3.50;;;14.30;99.90;;;;;;5033252;28;20485;-69
2022/08/10 03:25:59;;;;;;;4.88;2.95;;;14.40;99.90;;;;;;5015334;28;20103;-69
2022/08/10 03:28:28;;;;;;;9.13;3.35;;;14.30;99.90;;;;;;5032110;28;20073;-69
2022/08/10 03:30:56;;;;;;;6.30;3.40;;;14.30;99.90;;;;;;5033280;28;20030;-69
2022/08/10 03:33:24;;;;;;;5.57;3.40;;;14.30;99.90;;;;;;5032959;28;20099;-69
2022/08/10 03:35:50;;;;;;;7.03;3.78;;;14.30;99.90;;;;;;5033172;28;20108;-70
2022/08/10 03:38:16;;;;;;;5.95;2.55;;;14.30;99.90;;;;;;5033262;28;20045;-69
2022/08/10 03:40:46;;;;;;;4.07;2.55;;;14.20;99.90;;;;;;5033137;28;20041;-69
2022/08/10 03:43:21;;;;;;;5.20;2.83;;;14.30;99.90;;;;;;5032980;28;20558;-69
2022/08/10 03:45:52;;;;;;;4.00;2.50;;;14.20;99.90;;;;;;5033092;28;20484;-69
2022/08/10 03:48:19;;;;;;;4.40;2.75;;;14.20;99.90;;;;;;5032800;28;20045;-69
2022/08/10 03:50:46;;;;;;;4.43;2.88;;;14.20;99.90;;;;;;5032714;28;20120;-69
2022/08/10 03:53:13;;;;;;;4.72;2.97;;;14.20;99.90;;;;;;5032643;28;20048;-69
2022/08/10 03:55:39;;;;;;;6.97;3.25;;;14.20;99.90;;;;;;5033655;28;20037;-69
2022/08/10 03:58:05;;;;;;;6.05;2.78;;;14.20;99.90;;;;;;5036799;28;20037;-69
2022/08/10 04:00:34;;;;;;;7.97;2.67;;;14.20;99.90;;;;;;5037063;28;20036;-69
2022/08/10 04:03:03;;;;;;;8.02;3.92;;;14.20;99.90;;;;;;5036985;28;20435;-68
2022/08/10 04:05:32;;;;;;;7.13;3.25;;;14.20;99.90;;;;;;5037002;28;20493;-69
2022/08/10 04:08:02;;;;;;;5.28;3.40;;;14.10;99.90;;;;;;5019400;28;20411;-69
2022/08/10 04:10:28;;;;;;;6.38;2.75;;;14.20;99.90;;;;;;5036641;28;20186;-70
2022/08/10 04:12:54;;;;;;;4.18;2.72;;;14.20;99.90;;;;;;5036869;28;20092;-69
2022/08/10 04:15:20;;;;;;;5.82;3.30;;;14.20;99.90;;;;;;5036852;28;20554;-69
2022/08/10 04:17:46;;;;;;;5.28;2.70;;;14.20;99.90;;;;;;5018789;28;20049;-69
2022/08/10 04:20:38;;;;;;;5.22;3.08;;;14.20;99.90;;;;;;5043896;28;20445;-71
2022/08/10 04:23:22;;;;;;;4.93;3.00;;;14.30;99.90;;;;;;5030475;28;20099;-69
2022/08/10 04:25:49;;;;;;;5.63;3.20;;;14.30;99.90;;;;;;5056243;28;20080;-69
2022/08/10 04:28:16;;;;;;;4.88;2.92;;;14.30;99.90;;;;;;5056494;28;20460;-69
2022/08/10 04:30:44;;;;;;;7.55;3.45;;;14.60;99.90;;;;;;5056098;28;20080;-69
2022/08/10 04:33:13;;;;;;;6.88;2.78;;;14.30;99.90;;;;;;5038313;28;20450;-69
2022/08/10 04:35:40;;;;;;;6.88;2.53;;;14.30;99.90;;;;;;5038300;28;20033;-69
2022/08/10 04:38:08;;;;;;;5.10;2.47;;;14.30;99.90;;;;;;5056315;28;20067;-69
2022/08/10 04:40:33;;;;;;;5.50;2.85;;;14.40;99.90;;;;;;5055983;28;20045;-69
2022/08/10 04:43:05;;;;;;;3.85;2.35;;;14.30;99.90;;;;;;5038008;28;20047;-69
2022/08/10 04:45:32;;;;;;;3.75;2.17;;;14.30;99.90;;;;;;5038385;28;20047;-69
2022/08/10 04:47:57;;;;;;;4.15;2.35;;;14.30;99.90;;;;;;5056151;28;20064;-69
2022/08/10 04:50:23;;;;;;;4.32;2.42;;;14.30;99.90;;;;;;5056142;28;20048;-69
2022/08/10 04:52:49;;;;;;;4.93;2.40;;;14.30;99.90;;;;;;5056069;28;20040;-69
2022/08/10 04:55:14;;;;;;;4.53;2.65;;;14.30;99.90;;;;;;5055984;28;20465;-69
2022/08/10 04:57:40;;;;;;;3.05;1.95;;;14.30;99.90;;;;;;5038075;28;20044;-69
2022/08/10 05:00:07;;;;;;;4.28;2.17;;;14.30;99.90;;;;;;5055929;28;20044;-69
2022/08/10 05:02:33;;;;;;;2.40;1.65;;;14.30;99.90;;;;;;5055919;28;20590;-69
2022/08/10 05:04:58;;;;;;;3.97;2.53;;;14.20;99.90;;;;;;5055686;28;20127;-69
2022/08/10 05:07:25;;;;;;;3.47;1.83;;;14.10;99.90;;;;;;5021034;28;20044;-69
2022/08/10 05:09:51;;;;;;;2.35;1.75;;;14.10;99.90;;;;;;5037736;28;20033;-69
2022/08/10 05:12:16;;;;;;;4.75;2.40;;;14.10;99.90;;;;;;5037958;28;20481;-69
2022/08/10 05:14:42;;;;;;;4.88;2.72;;;14.10;99.90;;;;;;5037844;28;20084;-69
2022/08/10 05:17:07;;;;;;;4.75;2.38;;;14.30;99.90;;;;;;5055652;28;20116;-69
2022/08/10 05:19:33;;;;;;;4.55;2.40;;;14.30;99.90;;;;;;5037216;28;20555;-68
2022/08/10 05:21:59;;;;;;;3.65;2.22;;;14.30;99.90;;;;;;5055515;28;20503;-70
2022/08/10 05:24:25;;;;;;;3.53;2.05;;;14.40;99.90;;;;;;5055065;28;20033;-68
2022/08/10 05:26:50;;;;;;;3.90;2.45;;;14.50;99.90;;;;;;5055143;28;20132;-69
2022/08/10 05:29:16;;;;;;;4.68;2.83;;;14.50;99.90;;;;;;5055097;28;20037;-69
2022/08/10 05:31:42;;;;;;;5.05;3.50;;;14.60;99.90;;;;;;5055257;28;20037;-69
2022/08/10 05:34:07;;;;;;;6.25;3.10;;;14.70;99.90;;;;;;5037173;28;20416;-69
2022/08/10 05:36:34;;;;;;;4.68;2.95;;;14.80;99.90;;;;;;5054923;28;20051;-69
2022/08/10 05:39:01;;;;;;;7.90;3.17;;;14.80;99.90;;;;;;5054860;28;20041;-69
2022/08/10 05:41:27;;;;;;;6.10;2.78;;;15.00;99.90;;;;;;5054865;28;20080;-69
2022/08/10 05:43:55;;;;;;;4.93;2.88;;;15.10;99.90;;;;;;5055042;28;20098;-69
2022/08/10 05:46:20;;;;;;;6.95;2.75;;;15.20;99.90;;;;;;5055043;28;20041;-69
2022/08/10 05:48:48;;;;;;;4.30;2.72;;;15.30;99.90;;;;;;5054966;28;20167;-69
2022/08/10 05:51:15;;;;;;;4.78;3.08;;;15.40;99.90;;;;;;5054991;28;20115;-69
2022/08/10 05:53:40;;;;;;;4.72;3.05;;;15.50;99.90;;;;;;5054883;28;20041;-69
2022/08/10 05:56:08;;;;;;;4.28;2.80;;;15.50;99.90;;;;;;5054523;28;20508;-69
2022/08/10 05:58:36;;;;;;;5.50;2.78;;;15.60;99.90;;;;;;5054748;28;20139;-70
2022/08/10 06:01:11;;;;;;;5.88;3.05;;;15.70;99.90;;;;;;5054671;28;20033;-70
2022/08/10 06:03:44;;;;;;;5.63;3.03;;;15.80;99.90;;;;;;5054525;28;20045;-70
2022/08/10 06:06:12;;;;;;;6.10;3.38;;;15.90;99.90;;;;;;5054570;28;20037;-70
2022/08/10 06:08:39;;;;;;;4.57;2.30;;;16.00;99.90;;;;;;5054394;28;20044;-70
2022/08/10 06:11:06;;;;;;;6.38;3.35;;;16.10;99.90;;;;;;5036265;28;20078;-69
2022/08/10 06:16:22;;;;;;;4.45;2.72;;;16.20;99.90;;;;;;5054264;28;20052;-71
2022/08/10 06:18:49;;;;;;;4.78;2.50;;;16.50;99.90;;;;;;5035501;28;20098;-70
2022/08/10 06:21:17;;;;;;;3.90;2.55;;;16.50;99.90;;;;;;5053969;28;20084;-71
2022/08/10 06:23:44;;;;;;;5.63;2.85;;;16.60;99.90;;;;;;5053859;28;20040;-70
2022/08/10 06:26:10;;;;;;;5.53;3.15;;;16.70;99.90;;;;;;5054297;28;20045;-70
2022/08/10 06:28:40;;;;;;;3.25;2.30;;;16.80;99.90;;;;;;5053949;28;20416;-70
2022/08/10 06:31:08;;;;;;;6.05;3.00;;;16.90;99.90;;;;;;5054262;28;20094;-70
2022/08/10 06:33:36;;;;;;;4.40;2.60;;;17.10;99.90;;;;;;5054190;28;20049;-70
2022/08/10 06:36:03;;;;;;;7.65;3.25;;;17.10;99.90;;;;;;5054077;28;20084;-70
2022/08/10 06:38:32;;;;;;;4.95;2.85;;;17.40;99.90;;;;;;5054078;28;20068;-70
2022/08/10 06:41:03;;;;;;;5.95;3.40;;;17.50;99.90;;;;;;5053754;28;20080;-70
2022/08/10 06:43:31;;;;;;;3.75;2.40;;;17.70;99.90;;;;;;5053919;28;20099;-70
2022/08/10 06:46:06;;;;;;;7.00;2.92;;;17.90;99.90;;;;;;5053544;28;20083;-70
2022/08/10 06:48:37;;;;;;;5.35;2.50;;;18.00;99.90;;;;;;5053912;28;20068;-71
2022/08/10 06:51:13;;;;;;;5.22;2.78;;;18.10;99.90;;;;;;5035766;28;20041;-70
2022/08/10 06:53:46;;;;;;;3.42;2.53;;;18.20;99.90;;;;;;5053686;28;20052;-71
2022/08/10 06:56:15;;;;;;;4.75;2.75;;;18.30;99.90;;;;;;5053790;28;20041;-71
2022/08/10 06:58:56;;;;;;;5.20;2.75;;;18.40;99.90;;;;;;5053642;28;20056;-71
2022/08/10 07:01:29;;;;;;;3.40;2.65;;;18.50;99.90;;;;;;5053669;28;20037;-70
2022/08/10 07:04:17;;;;;;;4.43;2.50;;;18.70;99.90;;;;;;5053549;28;20472;-71
2022/08/10 07:06:45;;;;;;;3.70;2.25;;;18.80;99.90;;;;;;5053320;28;20120;-70
2022/08/10 07:09:14;;;;;;;2.63;1.80;;;18.90;99.90;;;;;;5053803;28;20048;-70
2022/08/10 07:11:42;;;;;;;3.30;2.33;;;19.00;99.90;;;;;;5035333;28;20048;-70
2022/08/10 07:14:11;;;;;;;4.70;2.30;;;19.00;99.90;;;;;;5053310;28;20068;-71
2022/08/10 07:16:39;;;;;;;3.90;2.38;;;19.10;99.90;;;;;;5035517;28;20047;-71
2022/08/10 07:19:07;;;;;;;2.85;1.90;;;19.30;99.90;;;;;;5053321;28;20123;-70
2022/08/10 07:21:35;;;;;;;4.88;2.13;;;19.40;99.90;;;;;;5052953;28;20061;-70
2022/08/10 07:24:03;;;;;;;3.05;1.70;;;19.50;99.90;;;;;;5053171;28;20076;-70
2022/08/10 07:26:30;;;;;;;3.45;1.67;;;19.60;99.90;;;;;;5053318;28;20044;-70
2022/08/10 07:28:57;;;;;;;2.92;1.55;;;19.70;99.90;;;;;;5053262;28;20036;-71
2022/08/10 07:31:23;;;;;;;4.95;1.90;;;19.90;99.90;;;;;;5052412;28;20079;-71
2022/08/10 07:33:52;;;;;;;3.60;1.67;;;20.00;99.90;;;;;;5053174;28;20040;-71
2022/08/10 07:36:20;;;;;;;2.30;1.40;;;20.00;99.90;;;;;;5053117;28;20041;-70
2022/08/10 07:38:48;;;;;;;2.03;1.40;;;20.10;99.90;;;;;;5053085;28;20124;-70
2022/08/10 07:41:16;;;;;;;2.42;1.65;;;20.20;99.90;;;;;;5052747;28;20129;-71
2022/08/10 07:43:44;;;;;;;3.42;1.83;;;20.30;99.90;;;;;;5052863;28;20044;-69
2022/08/10 07:46:13;;;;;;;2.67;1.63;;;20.40;99.90;;;;;;5052975;28;20473;-70
2022/08/10 07:48:44;;;;;;;2.25;1.70;;;20.40;99.90;;;;;;5052856;28;20045;-71
2022/08/10 07:51:11;;;;;;;2.78;1.63;;;20.60;99.90;;;;;;5052899;28;20107;-71
2022/08/10 07:53:44;;;;;;;1.95;1.45;;;20.60;99.90;;;;;;5052758;28;20045;-71
2022/08/10 07:56:11;;;;;;;3.47;1.70;;;20.80;99.90;;;;;;5052827;28;20491;-70
2022/08/10 07:58:52;;;;;;;2.00;1.40;;;20.90;99.90;;;;;;5034927;28;20442;-70
2022/08/10 08:01:21;;;;;;;2.55;1.55;;;21.00;99.90;;;;;;5052945;28;20045;-70
2022/08/10 08:03:47;;;;;;;2.38;1.52;;;21.10;99.90;;;;;;5052832;28;20116;-70
2022/08/10 08:06:14;;;;;;;4.38;1.63;;;21.10;99.90;;;;;;5052853;28;20069;-71
2022/08/10 08:08:42;;;;;;;2.65;1.25;;;21.10;99.90;;;;;;5052514;28;20094;-73
2022/08/10 08:11:09;;;;;;;3.47;1.33;;;21.30;99.90;;;;;;5052497;28;20040;-70
2022/08/10 08:13:37;;;;;;;2.65;1.23;;;21.30;99.90;;;;;;5052788;28;20084;-70
2022/08/10 08:16:05;;;;;;;2.35;1.70;;;21.40;99.90;;;;;;5052551;28;20033;-70
2022/08/10 08:18:34;;;;;;;2.42;1.50;;;21.40;99.90;;;;;;5052509;28;20076;-72
2022/08/10 08:21:01;;;;;;;2.40;1.08;;;21.50;99.90;;;;;;5052393;28;20134;-72
2022/08/10 08:23:28;;;;;;;1.83;1.38;;;21.60;99.90;;;;;;5052367;28;20041;-72
2022/08/10 08:25:55;;;;;;;4.85;1.30;;;21.80;99.90;;;;;;5052651;28;20067;-71
2022/08/10 08:28:23;;;;;;;1.90;1.50;;;21.90;99.90;;;;;;5052649;28;20037;-72
2022/08/10 08:30:49;;;;;;;1.85;1.20;;;22.00;99.90;;;;;;5052540;28;20048;-71
2022/08/10 08:33:17;;;;;;;2.20;1.27;;;22.00;99.90;;;;;;5052228;28;20128;-72
2022/08/10 08:35:43;;;;;;;2.55;1.40;;;22.10;99.90;;;;;;5034457;28;20098;-72
2022/08/10 08:38:12;;;;;;;1.90;1.15;;;22.10;99.90;;;;;;5052185;28;20088;-71
2022/08/10 08:40:43;;;;;;;1.90;1.20;;;22.20;99.90;;;;;;5034303;28;20127;-71
2022/08/10 08:43:23;;;;;;;1.65;1.10;;;22.30;99.90;;;;;;5037335;28;20040;-71
2022/08/10 08:46:32;;;;;;;2.13;1.13;;;22.40;99.90;;;;;;5055875;28;20080;-71
2022/08/10 08:49:14;;;;;;;2.55;1.40;;;22.40;99.90;;;;;;5056186;28;20095;-69
2022/08/10 08:51:40;;;;;;;1.52;1.10;;;22.50;99.90;;;;;;5056058;28;20526;-71
2022/08/10 08:54:14;;;;;;;3.35;1.00;;;22.60;99.90;;;;;;5055934;28;20124;-71
2022/08/10 08:57:25;;;;;;;4.13;1.30;;;22.70;99.90;;;;;;5055747;28;20041;-71
2022/08/10 09:00:09;;;;;;;2.20;1.10;;;22.70;99.90;;;;;;4993355;28;20107;-71
2022/08/10 09:02:53;;;;;;;5.75;1.30;;;22.90;99.90;;;;;;5055814;28;20049;-70
2022/08/10 09:05:54;;;;;;;2.60;1.20;;;22.90;99.90;;;;;;5055705;28;20488;-70
2022/08/10 09:08:28;;;;;;;2.08;1.30;;;23.00;99.90;;;;;;5004932;28;20404;-69
2022/08/10 09:11:12;;;;;;;3.83;1.25;;;23.00;99.90;;;;;;5055699;28;20116;-71
2022/08/10 09:13:50;;;;;;;2.58;1.38;;;23.10;99.90;;;;;;5055327;28;20041;-70
2022/08/10 09:16:24;;;;;;;2.50;1.30;;;23.20;99.90;;;;;;5055376;28;20045;-70
2022/08/10 09:19:02;;;;;;;1.92;1.00;;;23.20;99.90;;;;;;5055526;28;20055;-70
2022/08/10 09:21:53;;;;;;;2.75;1.20;;;23.30;99.90;;;;;;5055168;28;20518;-70
2022/08/10 09:24:43;;;;;;;2.17;1.25;;;23.40;99.90;;;;;;5055356;28;20045;-70
2022/08/10 09:27:32;;;;;;;;;;;23.50;99.90;;;;;;5055849;28;20438;-71
2022/08/10 09:30:05;;;;;;;1.98;1.00;;;23.50;99.90;;;;;;5046744;28;19968;-70
2022/08/10 09:32:47;;;;;;;1.33;0.80;;;23.60;99.90;;;;;;5055249;28;20037;-70
2022/08/10 09:35:51;;;;;;;1.85;1.05;;;23.70;99.90;;;;;;5054975;28;20044;-71
2022/08/10 09:38:44;;;;;;;1.92;1.10;;;23.70;99.90;;;;;;5055205;28;20464;-70
2022/08/10 09:41:27;;;;;;;3.72;1.20;;;23.80;99.90;;;;;;5055121;28;20043;-71
2022/08/10 09:44:19;;;;;;;2.38;1.38;;;23.80;99.90;;;;;;5036883;28;20107;-71
2022/08/10 09:47:12;;;;;;;2.30;1.10;;;23.80;99.90;;;;;;5037244;28;20041;-72
2022/08/10 09:50:03;;;;;;;2.28;1.02;;;23.90;99.90;;;;;;5054708;28;20037;-72
2022/08/10 09:52:48;;;;;;;3.55;1.52;;;24.00;99.90;;;;;;5054678;28;20080;-72
2022/08/10 09:55:25;;;;;;;1.48;0.82;;;24.10;99.90;;;;;;5054365;28;20129;-73
2022/08/10 09:58:04;;;;;;;1.98;1.05;;;24.20;99.90;;;;;;5054858;28;20468;-72
2022/08/10 10:00:36;;;;;;;0.98;0.70;;;24.30;99.90;;;;;;5054596;28;20039;-71
2022/08/10 10:03:11;;;;;;;1.40;1.02;;;24.60;99.90;;;;;;5054433;28;20040;-72
2022/08/10 10:05:48;;;;;;;5.93;1.17;;;24.70;99.90;;;;;;5054361;28;20077;-72
2022/08/10 10:08:36;;;;;;;1.30;0.90;;;24.80;99.90;;;;;;5054348;28;20047;-71
2022/08/10 10:11:29;;;;;;;0.90;0.68;;;24.90;99.90;;;;;;5054510;28;20037;-68
2022/08/10 10:14:22;;;;;;;1.45;0.93;;;25.10;99.90;;;;;;5054506;28;20500;-69
2022/08/10 10:17:11;;;;;;;1.13;0.88;;;25.10;99.90;;;;;;5054444;28;20080;-69
2022/08/10 10:20:16;;;;;;;3.70;1.13;;;25.00;99.90;;;;;;5053862;28;20037;-69
2022/08/10 10:23:14;;;;;;;1.02;0.75;;;25.20;99.90;;;;;;5054249;28;20041;-70
2022/08/10 10:26:16;;;;;;;1.33;0.77;;;25.40;99.90;;;;;;5054153;28;20128;-70
2022/08/10 10:29:22;;;;;;;1.92;0.70;;;25.30;99.90;;;;;;5054166;28;20037;-70
2022/08/10 10:32:02;;;;;;;1.95;0.80;;;25.30;99.90;;;;;;5054147;28;20117;-69
2022/08/10 10:34:47;;;;;;;1.05;0.63;;;25.30;99.90;;;;;;5053849;28;20049;-69
2022/08/10 10:37:14;;;;;;;3.50;0.70;;;25.20;99.90;;;;;;5054061;28;20415;-70
2022/08/10 10:39:43;;;;;;;2.25;0.60;;;25.30;99.90;;;;;;5053920;28;20115;-69
2022/08/10 10:42:36;;;;;;;0.57;0.45;;;25.30;99.90;;;;;;5053925;28;20434;-69
2022/08/10 10:45:18;;;;;;;1.40;1.00;;;25.40;99.90;;;;;;5035809;28;20182;-71
2022/08/10 10:48:13;;;;;;;1.67;0.80;;;25.40;99.90;;;;;;5053533;28;20046;-70
2022/08/10 10:51:06;;;;;;;0.65;0.52;;;25.40;99.90;;;;;;5053787;28;20036;-70
2022/08/10 10:53:38;;;;;;;1.50;0.70;;;25.50;99.90;;;;;;5035544;28;20446;-69
2022/08/10 10:56:19;;;;;;;1.10;0.88;;;25.60;99.90;;;;;;5053401;28;20037;-69
2022/08/10 10:59:16;;;;;;;0.75;0.70;;;25.60;99.90;;;;;;5035467;28;20044;-70
2022/08/10 11:01:57;;;;;;;1.35;0.65;;;25.50;99.60;;;;;;5053578;28;20036;-70
2022/08/10 11:04:43;;;;;;;0.60;0.60;;;25.50;99.90;;;;;;5053348;28;20076;-69
2022/08/10 11:07:33;;;;;;;0.70;0.70;;;25.50;99.10;;;;;;5012726;28;20085;-69
2022/08/10 11:10:06;;;;;;;1.27;0.80;;;25.50;99.80;;;;;;5053448;28;20447;-69
2022/08/10 11:13:10;;;;;;;1.17;0.68;;;25.50;99.90;;;;;;5035615;28;20499;-69
2022/08/10 11:15:48;;;;;;;0.65;0.60;;;25.60;99.90;;;;;;5034467;28;20084;-69
2022/08/10 11:18:47;;;;;;;2.53;1.30;;;25.70;99.90;;;;;;5053356;28;20052;-69
2022/08/10 11:21:23;;;;;;;1.60;0.60;;;25.70;99.90;;;;;;5052931;28;20065;-70
2022/08/10 11:24:12;;;;;;;0.70;0.70;;;25.70;99.10;;;;;;5053064;28;20045;-69
2022/08/10 11:26:49;;;;;;;1.73;0.85;;;25.70;99.90;;;;;;5053178;28;20083;-69
2022/08/10 11:29:30;;;;;;;0.82;0.75;;;25.70;99.20;;;;;;5053127;28;20431;-68
2022/08/10 11:32:05;;;;;;;4.13;1.20;;;25.80;99.90;;;;;;5052768;28;20045;-69
2022/08/10 11:34:49;;;;;;;0.52;0.50;;;25.80;99.20;;;;;;5053069;28;20119;-69
2022/08/10 11:37:28;;;;;;;2.25;0.57;;;25.90;99.70;;;;;;5052732;28;20048;-69
2022/08/10 11:39:59;;;;;;;1.02;0.80;;;;;;;;;;5052746;28;20041;-69
2022/08/10 11:42:37;;;;;;;3.35;0.73;;;;;;;;;;5053010;28;20446;-69
2022/08/10 11:45:19;;;;;;;1.95;0.80;;;26.20;98.80;;;;;;5052940;28;20049;-69
2022/08/10 11:47:53;;;;;;;0.73;0.50;;;26.10;98.80;;;;;;5052938;28;20045;-69
2022/08/10 11:50:21;;;;;;;2.97;0.60;;;26.00;96.80;;;;;;5052617;28;20043;-71
2022/08/10 11:52:55;;;;;;;1.00;0.70;;;26.10;97.70;;;;;;5052877;28;20130;-70
2022/08/10 11:55:24;;;;;;;1.50;0.80;;;26.10;98.20;;;;;;5052608;28;20170;-70
2022/08/10 11:59:55;;;;;;;0.70;0.60;;;26.10;97.80;;;;;;5052881;28;20083;-70
2022/08/10 12:00:49;;;;;;;0.60;0.60;;;26.20;98.40;;;;;;5052462;28;20048;-70
2022/08/10 12:03:16;;;;;;;1.00;0.70;;;26.30;98.90;;;;;;5052875;28;20041;-70
2022/08/10 12:05:43;;;;;;;0.90;0.70;;;26.30;96.80;;;;;;5052403;28;20056;-70
2022/08/10 12:08:10;;;;;;;1.02;0.85;;;;;;;;;;5035094;28;20366;-71
2022/08/10 12:10:38;;;;;;;1.02;0.93;;;26.30;97.30;;;;;;5052518;28;20047;-69
2022/08/10 12:13:25;;;;;;;0.98;0.77;;;26.30;97.50;;;;;;5052751;28;20045;-70
2022/08/10 12:16:05;;;;;;;1.48;0.65;;;26.30;96.40;;;;;;5052755;28;20181;-71
2022/08/10 12:18:44;;;;;;;1.27;0.70;;;26.40;96.40;;;;;;5056457;28;20045;-70
2022/08/10 12:21:32;;;;;;;1.35;0.93;;;26.50;97.90;;;;;;5038342;28;20104;-70
2022/08/10 12:24:07;;;;;;;1.02;0.75;;;26.50;96.50;;;;;;5056506;28;20606;-69
2022/08/10 12:26:44;;;;;;;1.75;0.82;;;26.50;96.50;;;;;;5056348;28;20059;-69
2022/08/10 12:29:26;;;;;;;1.27;0.88;;;26.60;95.70;;;;;;5056509;28;20048;-70
2022/08/10 12:31:59;;;;;;;1.40;0.70;;;26.50;95.90;;;;;;5056503;28;20511;-72
2022/08/10 12:35:23;;;;;;;0.73;0.57;;;26.60;95.50;;;;;;5056432;28;20048;-71
2022/08/10 12:38:20;;;;;;;1.17;0.82;;;26.60;94.80;;;;;;4943578;29;20136;-71
2022/08/10 12:40:56;;;;;;;0.60;0.60;;;26.60;94.60;;;;;;5056140;28;20036;-70
2022/08/10 12:43:34;;;;;;;0.77;0.60;;;26.60;93.70;;;;;;5056265;28;20044;-72
2022/08/10 12:46:30;;;;;;;1.23;0.85;;;26.70;95.30;;;;;;5056148;28;20060;-72
2022/08/10 12:49:02;;;;;;;1.40;0.77;;;;;;;;;;5056114;28;20041;-72
2022/08/10 12:51:29;;;;;;;1.30;0.88;;;;;;;;;;5038319;28;20136;-71
2022/08/10 12:54:06;;;;;;;1.63;0.80;;;;;;;;;;5056021;28;20067;-70
2022/08/10 12:56:34;;;;;;;1.00;0.80;;;;;;;;;;5055716;28;20047;-71
2022/08/10 12:59:00;;;;;;;0.60;0.60;;;;;;;;;;5055675;28;20040;-69
2022/08/10 13:01:28;;;;;;;1.05;0.77;;;;;;;;;;5055975;28;20484;-71
2022/08/10 13:03:58;;;;;;;1.02;0.70;;;;;;;;;;5055538;28;20085;-71
2022/08/10 13:06:25;;;;;;;1.48;0.73;;;;;;;;;;5055760;28;20369;-71
2022/08/10 13:09:07;;;;;;;1.15;0.90;;;;;;;;;;5055458;28;20041;-71
2022/08/10 13:11:35;;;;;;;1.10;0.80;;;;;;;;;;5055395;28;20043;-72
2022/08/10 13:14:06;;;;;;;1.48;0.82;;;;;;;;;;5021164;28;20041;-71
2022/08/10 13:16:33;;;;;;;0.90;0.82;;;;;;;;;;5037414;28;20049;-67
2022/08/10 13:19:01;;;;;;;1.85;1.10;;;;;;;;;;5037828;28;20037;-73
2022/08/10 13:21:30;;;;;;;1.13;0.80;;;;;;;;;;5055139;28;20053;-71
2022/08/10 13:24:05;;;;;;;1.00;0.70;;;;;;;;;;5055301;28;20045;-72
2022/08/10 13:26:34;;;;;;;1.10;0.68;;;;;;;;;;5037592;28;20041;-72
2022/08/10 13:29:01;;;;;;;1.02;0.70;;;27.40;92.00;;;;;;5054061;28;20037;-73
2022/08/10 13:31:30;;;;;;;1.27;0.77;;;27.30;92.60;;;;;;5055358;28;20041;-74